Time;durP1;ratioP1;P1;durP2;ratioP2;P2;SDS_P1;SDS_P2;PMS_P1;PMS_P2;Temp;Humidity;BMP_temperature;BMP_pressure;BME280_temperature;BME280_humidity;BME280_pressure;Samples;Min_cycle;Max_cycle;Signal;HPM_P1;HPM_P2
2023/06/06 00:00:06;;;;;;;37.72;28.33;;;;;;;19.74;57.04;93334.84;5026363;28;20476;-92
2023/06/06 00:02:32;;;;;;;43.20;31.08;;;;;;;19.75;57.41;93333.59;5035950;28;20558;-91
2023/06/06 00:05:00;;;;;;;38.63;27.70;;;;;;;19.75;57.23;93330.84;5038756;28;20056;-91
2023/06/06 00:07:26;;;;;;;36.65;27.90;;;;;;;19.75;57.10;93326.09;5022178;28;20144;-93
2023/06/06 00:09:52;;;;;;;36.53;27.40;;;;;;;19.76;57.23;93330.31;5038461;28;20037;-90
2023/06/06 00:12:17;;;;;;;40.03;29.65;;;;;;;19.73;57.05;93320.38;5042896;28;20095;-92
2023/06/06 00:14:43;;;;;;;37.78;28.65;;;;;;;19.74;57.22;93330.09;5010555;28;20266;-92
2023/06/06 00:17:09;;;;;;;40.10;29.25;;;;;;;19.74;57.09;93316.38;5040415;28;20641;-92
2023/06/06 00:19:35;;;;;;;35.20;27.27;;;;;;;19.74;56.95;93318.38;5010132;28;20045;-93
2023/06/06 00:22:02;;;;;;;36.53;27.50;;;;;;;19.72;57.16;93318.91;5040318;28;20037;-90
2023/06/06 00:24:28;;;;;;;39.30;28.48;;;;;;;19.73;56.99;93314.91;5059101;28;20049;-92
2023/06/06 00:26:53;;;;;;;38.25;27.85;;;;;;;19.72;57.20;93312.69;5022629;28;20041;-91
2023/06/06 00:29:18;;;;;;;35.38;25.15;;;;;;;19.73;57.11;93308.66;5014165;28;20037;-91
2023/06/06 00:31:44;;;;;;;36.67;27.38;;;;;;;19.73;57.30;93314.16;5013794;28;20033;-93
2023/06/06 00:34:10;;;;;;;34.80;26.95;;;;;;;19.72;57.03;93312.69;5012768;28;20044;-91
2023/06/06 00:36:35;;;;;;;34.08;26.65;;;;;;;19.70;57.38;93309.75;5000658;28;20497;-92
2023/06/06 00:39:00;;;;;;;36.97;26.35;;;;;;;19.72;57.08;93310.69;5040483;28;20488;-91
2023/06/06 00:41:26;;;;;;;37.45;27.92;;;;;;;19.72;56.93;93305.19;4996315;28;20493;-92
2023/06/06 00:43:51;;;;;;;36.15;27.73;;;;;;;19.72;57.05;93318.91;5026782;28;20045;-91
2023/06/06 00:46:17;;;;;;;33.67;25.48;;;;;;;19.73;56.79;93308.66;5024361;28;20344;-90
2023/06/06 00:48:42;;;;;;;35.03;25.20;;;;;;;19.70;56.99;93304.97;5042985;28;20038;-90
2023/06/06 00:51:09;;;;;;;36.30;27.45;;;;;;;19.72;57.00;93302.44;5044313;28;20041;-90
2023/06/06 00:53:35;;;;;;;33.97;25.10;;;;;;;19.72;56.90;93299.72;5026083;28;20059;-91
2023/06/06 00:56:00;;;;;;;31.75;24.02;;;;;;;19.74;57.02;93304.66;4991146;28;20037;-91
2023/06/06 00:58:27;;;;;;;35.42;25.58;;;;;;;19.71;56.90;93295.47;5041378;28;20603;-94
2023/06/06 01:00:52;;;;;;;35.10;25.27;;;;;;;19.72;56.92;93305.19;5024944;28;20056;-91
2023/06/06 01:03:20;;;;;;;31.65;25.20;;;;;;;19.71;56.93;93300.97;5010099;28;20103;-94
2023/06/06 01:05:46;;;;;;;32.78;25.83;;;;;;;19.74;57.04;93301.94;5008183;28;20030;-91
2023/06/06 01:08:12;;;;;;;31.98;24.67;;;;;;;19.72;57.15;93307.94;5004107;28;20692;-92
2023/06/06 01:10:39;;;;;;;33.67;24.27;;;;;;;19.72;56.84;93298.97;4990301;28;20050;-91
2023/06/06 01:13:36;;;;;;;30.88;23.70;;;;;;;19.72;56.83;93307.19;5049267;28;20034;-92
2023/06/06 01:16:05;;;;;;;30.67;24.13;;;;;;;19.72;57.06;93301.72;5028203;28;20030;-94
2023/06/06 01:18:31;;;;;;;35.40;25.73;;;;;;;19.71;56.86;93309.19;5024981;28;20045;-91
2023/06/06 01:20:57;;;;;;;33.42;24.67;;;;;;;19.72;56.85;93309.94;5042514;28;20060;-91
2023/06/06 01:23:23;;;;;;;36.60;26.45;;;;;;;19.69;57.04;93306.25;5042487;28;20369;-90
2023/06/06 01:25:48;;;;;;;30.75;22.50;;;;;;;19.70;56.86;93313.19;5020772;28;20060;-90
2023/06/06 01:28:16;;;;;;;33.90;23.85;;;;;;;19.69;56.87;93313.75;5008791;28;20081;-92
2023/06/06 01:30:42;;;;;;;31.60;24.25;;;;;;;19.72;56.96;93312.69;5055058;28;20034;-91
2023/06/06 01:33:43;;;;;;;30.15;22.58;;;;;;;19.70;57.12;93304.97;5028643;28;20063;-91
2023/06/06 01:36:14;;;;;;;30.38;23.85;;;;;;;19.70;56.90;93309.75;5038556;28;20057;-91
2023/06/06 01:38:47;;;;;;;27.02;20.65;;;;;;;19.69;56.71;93306.25;5027031;28;20065;-90
2023/06/06 01:41:16;;;;;;;29.35;22.67;;;;;;;19.70;56.85;93299.47;5022892;28;20073;-91
2023/06/06 01:43:41;;;;;;;30.52;23.10;;;;;;;19.71;56.77;93306.44;5012015;28;20037;-94
2023/06/06 01:46:07;;;;;;;30.42;21.38;;;;;;;19.71;56.72;93298.22;5012336;28;20048;-90
2023/06/06 01:48:32;;;;;;;30.80;22.45;;;;;;;19.68;56.72;93310.25;5052623;28;20033;-94
2023/06/06 01:50:57;;;;;;;32.72;23.95;;;;;;;19.70;56.57;93304.25;5012712;28;20048;-91
2023/06/06 01:53:23;;;;;;;30.77;23.58;;;;;;;19.67;56.82;93310.78;5029060;28;20038;-93
2023/06/06 01:55:48;;;;;;;27.08;20.35;;;;;;;19.69;56.82;93298.03;5032660;28;20411;-93
2023/06/06 01:58:15;;;;;;;28.20;20.90;;;;;;;19.70;56.52;93304.25;5023504;28;20492;-91
2023/06/06 02:00:40;;;;;;;28.25;21.67;;;;;;;19.70;56.85;93310.47;5041668;28;20088;-90
2023/06/06 02:03:06;;;;;;;25.50;19.90;;;;;;;19.70;56.62;93309.75;5025066;28;20037;-91
2023/06/06 02:05:31;;;;;;;26.30;20.35;;;;;;;19.70;56.77;93296.75;5025433;28;20619;-91
2023/06/06 02:07:57;;;;;;;26.25;19.83;;;;;;;19.72;56.58;93299.72;5009407;28;20041;-93
2023/06/06 02:10:23;;;;;;;27.83;20.90;;;;;;;19.68;56.87;93302.03;5024542;28;20053;-93
2023/06/06 02:12:48;;;;;;;28.33;20.13;;;;;;;19.67;56.76;93297.81;5028730;28;20037;-91
2023/06/06 02:15:14;;;;;;;30.20;22.13;;;;;;;19.70;56.83;93307.00;5028731;28;20041;-93
2023/06/06 02:17:40;;;;;;;28.15;20.70;;;;;;;19.70;56.52;93304.25;5022486;28;20037;-91
2023/06/06 02:20:07;;;;;;;27.15;21.00;;;;;;;19.68;56.63;93304.03;4992689;28;20046;-90
2023/06/06 02:22:33;;;;;;;27.35;21.45;;;;;;;19.70;56.75;93299.47;5009637;28;20057;-91
2023/06/06 02:24:59;;;;;;;25.40;19.33;;;;;;;19.68;56.80;93299.28;5045709;28;20488;-93
2023/06/06 02:27:24;;;;;;;28.17;20.48;;;;;;;19.68;56.55;93301.28;5029872;28;20099;-91
2023/06/06 02:29:50;;;;;;;28.00;20.17;;;;;;;19.69;56.74;93303.50;5026162;28;20044;-91
2023/06/06 02:32:15;;;;;;;25.35;19.33;;;;;;;19.68;56.62;93301.28;5015162;28;20053;-93
2023/06/06 02:34:42;;;;;;;26.85;19.70;;;;;;;19.70;56.62;93293.28;5042127;28;20128;-92
2023/06/06 02:37:07;;;;;;;26.98;20.05;;;;;;;19.68;56.72;93304.78;4997821;28;20104;-91
2023/06/06 02:39:33;;;;;;;24.25;19.13;;;;;;;19.70;56.60;93296.75;5041669;28;20045;-91
2023/06/06 02:41:59;;;;;;;26.50;19.55;;;;;;;19.68;56.53;93295.81;5045464;28;20041;-91
2023/06/06 02:44:26;;;;;;;26.40;18.67;;;;;;;19.69;56.47;93303.50;5011977;28;20556;-93
2023/06/06 02:46:52;;;;;;;25.55;18.23;;;;;;;19.66;56.68;93303.81;5023585;28;20048;-91
2023/06/06 02:49:17;;;;;;;24.33;18.45;;;;;;;19.66;56.55;93303.81;5012236;28;20033;-92
2023/06/06 02:51:42;;;;;;;25.02;18.60;;;;;;;19.67;56.73;93302.56;5013714;28;20052;-92
2023/06/06 02:54:08;;;;;;;24.30;18.77;;;;;;;19.65;56.64;93297.59;5034552;28;20515;-90
2023/06/06 02:56:33;;;;;;;23.88;18.20;;;;;;;19.68;56.65;93304.78;5041629;28;20033;-92
2023/06/06 02:58:59;;;;;;;25.33;18.40;;;;;;;19.65;56.74;93305.06;5015385;28;20525;-92
2023/06/06 03:01:25;;;;;;;23.50;18.50;;;;;;;19.66;56.47;93307.28;5047239;28;20047;-91
2023/06/06 03:03:51;;;;;;;23.75;17.08;;;;;;;19.68;56.34;93309.53;5032514;28;20037;-92
2023/06/06 03:06:16;;;;;;;23.85;17.67;;;;;;;19.68;56.53;93301.28;5046727;28;20048;-93
2023/06/06 03:08:45;;;;;;;23.60;17.80;;;;;;;19.68;56.72;93298.56;5029022;28;20038;-90
2023/06/06 03:11:10;;;;;;;24.00;18.00;;;;;;;19.68;56.96;93307.53;5028199;28;20531;-90
2023/06/06 03:13:35;;;;;;;24.08;18.65;;;;;;;19.66;56.50;93304.56;5020793;28;20037;-92
2023/06/06 03:16:01;;;;;;;22.05;17.33;;;;;;;19.63;56.62;93305.59;5028818;28;20146;-92
2023/06/06 03:18:26;;;;;;;23.02;17.25;;;;;;;19.64;56.49;93298.09;5027485;28;20116;-91
2023/06/06 03:20:53;;;;;;;22.00;17.00;;;;;;;19.65;56.62;93308.56;5014706;28;20042;-94
2023/06/06 03:23:19;;;;;;;22.98;16.98;;;;;;;19.66;56.55;93310.03;5023325;28;20125;-91
2023/06/06 03:25:44;;;;;;;26.23;18.10;;;;;;;19.66;56.44;93309.28;5051802;28;20036;-93
2023/06/06 03:28:10;;;;;;;21.85;17.38;;;;;;;19.66;56.64;93314.78;5014622;28;20041;-91
2023/06/06 03:30:36;;;;;;;23.65;17.08;;;;;;;19.67;56.70;93305.28;5027760;28;20045;-90
2023/06/06 03:33:03;;;;;;;20.42;16.05;;;;;;;19.68;56.42;93306.78;5028171;28;20441;-91
2023/06/06 03:35:33;;;;;;;24.05;16.67;;;;;;;19.72;56.59;93307.94;5028415;28;20068;-89
2023/06/06 03:38:02;;;;;;;57.70;40.22;;;;;;;19.75;56.62;93314.38;5053016;28;20045;-91
2023/06/06 03:40:28;;;;;;;22.73;17.10;;;;;;;19.77;56.42;93309.84;5034457;28;20045;-90
2023/06/06 03:42:53;;;;;;;23.98;17.50;;;;;;;19.75;56.30;93315.13;5050139;28;20045;-88
2023/06/06 03:45:19;;;;;;;21.75;17.08;;;;;;;19.78;56.02;93305.13;5007778;28;20057;-88
2023/06/06 03:47:45;;;;;;;23.40;16.45;;;;;;;19.81;56.08;93317.78;5037137;28;20116;-91
2023/06/06 03:50:11;;;;;;;23.20;16.98;;;;;;;19.77;56.30;93307.13;5004821;28;20131;-90
2023/06/06 03:52:36;;;;;;;22.92;15.82;;;;;;;19.76;55.92;93310.38;5017753;28;20042;-89
2023/06/06 03:55:02;;;;;;;25.23;15.55;;;;;;;19.78;56.10;93311.34;5038254;28;20115;-88
2023/06/06 03:57:28;;;;;;;22.98;16.25;;;;;;;19.77;56.16;93314.59;5021775;28;20500;-90
2023/06/06 03:59:54;;;;;;;56.30;26.73;;;;;;;19.86;55.60;93314.22;5020742;28;20034;-90
2023/06/06 04:02:21;;;;;;;71.18;30.42;;;;;;;19.75;56.08;93311.63;5025675;28;20049;-92
2023/06/06 04:04:51;;;;;;;67.38;31.52;;;;;;;19.76;56.08;93313.13;4995537;28;20052;-91
2023/06/06 04:07:19;;;;;;;102.25;34.63;;;;;;;19.80;55.76;93319.03;5034161;28;20040;-92
2023/06/06 04:09:44;;;;;;;971.92;182.68;;;;;;;19.90;55.52;93308.44;5013859;28;20038;-91
2023/06/06 04:12:10;;;;;;;105.20;27.85;;;;;;;19.75;56.18;93317.13;5024940;28;20176;-89
2023/06/06 04:14:35;;;;;;;173.73;48.65;;;;;;;19.77;56.42;93312.59;5038370;28;20274;-89
2023/06/06 04:17:03;;;;;;;97.70;31.05;;;;;;;19.77;56.72;93311.84;5026331;28;20244;-90
2023/06/06 04:19:30;;;;;;;85.30;24.27;;;;;;;19.77;56.80;93317.34;5008152;28;20037;-91
2023/06/06 04:21:55;;;;;;;78.78;22.58;;;;;;;19.74;57.34;93315.63;5040289;28;20689;-90
2023/06/06 04:24:21;;;;;;;77.72;18.90;;;;;;;19.71;57.72;93316.69;5026076;28;20057;-90
2023/06/06 04:26:46;;;;;;;60.92;15.52;;;;;;;19.63;57.96;93313.81;5022099;28;20042;-92
2023/06/06 04:29:13;;;;;;;56.28;16.10;;;;;;;19.54;58.29;93313.44;5018460;28;20049;-92
2023/06/06 04:31:40;;;;;;;84.57;22.52;;;;;;;19.62;58.16;93315.09;4995825;28;20063;-93
2023/06/06 04:34:09;;;;;;;69.45;27.13;;;;;;;19.48;58.47;93314.25;5011368;28;20051;-91
2023/06/06 04:36:38;;;;;;;66.53;29.13;;;;;;;19.46;58.60;93318.78;4996169;28;20045;-93
2023/06/06 04:39:08;;;;;;;74.95;24.40;;;;;;;19.50;58.66;93319.22;5050203;28;20053;-94
2023/06/06 04:41:34;;;;;;;52.10;15.50;;;;;;;19.43;58.89;93317.06;5047804;28;20061;-92
2023/06/06 04:44:03;;;;;;;52.80;16.58;;;;;;;19.43;58.95;93304.09;4996293;28;20091;-93
2023/06/06 04:46:29;;;;;;;44.13;19.10;;;;;;;19.42;59.32;93310.09;5013855;28;20053;-91
2023/06/06 04:48:55;;;;;;;47.83;15.50;;;;;;;19.42;59.11;93310.84;5017615;28;20026;-90
2023/06/06 04:51:22;;;;;;;62.40;17.48;;;;;;;19.48;59.05;93316.25;4989673;28;20114;-93
2023/06/06 04:53:50;;;;;;;64.03;17.70;;;;;;;19.47;58.93;93312.03;4999120;28;20500;-91
2023/06/06 04:56:17;;;;;;;68.65;18.95;;;;;;;19.48;59.00;93314.25;5001655;28;20045;-92
2023/06/06 04:58:43;;;;;;;52.42;16.35;;;;;;;19.47;59.26;93328.50;5008398;28;20516;-92
2023/06/06 05:01:10;;;;;;;59.20;15.93;;;;;;;19.44;59.41;93322.03;5027935;28;20049;-92
2023/06/06 05:03:36;;;;;;;70.95;18.05;;;;;;;19.45;59.91;93320.78;4989342;28;20056;-91
2023/06/06 05:06:04;;;;;;;58.90;16.73;;;;;;;19.47;59.51;93309.28;4999561;28;20042;-91
2023/06/06 05:08:31;;;;;;;32.45;11.52;;;;;;;19.39;59.52;93314.63;4977865;28;20061;-91
2023/06/06 05:10:58;;;;;;;32.22;10.70;;;;;;;19.40;59.53;93326.34;5010670;28;20661;-91
2023/06/06 05:13:23;;;;;;;24.13;10.25;;;;;;;19.41;59.69;93320.34;4989676;28;20505;-91
2023/06/06 05:15:49;;;;;;;34.70;14.15;;;;;;;19.46;59.44;93321.53;5024796;28;20057;-93
2023/06/06 05:18:15;;;;;;;47.47;16.10;;;;;;;19.39;59.77;93325.59;4990972;28;20123;-91
2023/06/06 05:20:41;;;;;;;24.92;11.63;;;;;;;19.37;59.84;93319.16;4993682;28;20042;-92
2023/06/06 05:23:14;;;;;;;47.25;11.98;;;;;;;19.40;59.73;93329.06;4990851;28;20048;-91
2023/06/06 05:25:40;;;;;;;24.10;10.35;;;;;;;19.36;60.20;93325.88;4993152;28;20064;-91
2023/06/06 05:28:11;;;;;;;51.38;13.48;;;;;;;19.42;60.15;93321.81;4994884;28;20056;-90
2023/06/06 05:30:36;;;;;;;93.43;22.38;;;;;;;19.35;60.35;93330.63;4988981;28;20556;-92
2023/06/06 05:33:02;;;;;;;61.72;17.38;;;;;;;19.35;60.34;93335.38;5018022;28;20050;-91
2023/06/06 05:35:27;;;;;;;59.55;16.27;;;;;;;19.33;60.34;93338.63;5025040;28;20293;-91
2023/06/06 05:37:53;;;;;;;54.58;17.45;;;;;;;19.46;60.10;93338.72;5006564;28;20041;-93
2023/06/06 05:40:18;;;;;;;58.97;19.13;;;;;;;19.42;60.22;93335.53;5024757;28;20301;-92
2023/06/06 05:42:44;;;;;;;64.18;22.17;;;;;;;19.50;59.69;93327.44;5018698;28;20049;-91
2023/06/06 05:45:09;;;;;;;140.48;38.10;;;;;;;19.55;59.59;93332.13;5018926;28;20038;-91
2023/06/06 05:47:35;;;;;;;126.50;38.83;;;;;;;19.52;59.50;93330.41;5019872;28;20483;-91
2023/06/06 05:50:01;;;;;;;120.50;38.25;;;;;;;19.58;59.50;93333.84;5049330;28;20040;-91
2023/06/06 05:52:26;;;;;;;138.20;41.72;;;;;;;19.63;59.10;93326.78;4997222;28;20057;-91
2023/06/06 05:55:00;;;;;;;132.82;39.17;;;;;;;19.60;58.90;93333.31;5013900;28;20041;-90
2023/06/06 05:57:25;;;;;;;211.30;49.42;;;;;;;19.65;58.57;93329.75;4993207;28;20038;-90
2023/06/06 05:59:51;;;;;;;168.98;46.35;;;;;;;19.68;58.86;93329.47;5020905;28;20065;-90
2023/06/06 06:02:17;;;;;;;202.98;54.70;;;;;;;19.74;58.36;93340.31;5032984;28;20521;-89
2023/06/06 06:04:45;;;;;;;197.77;57.97;;;;;;;19.73;58.55;93347.06;5013789;28;20914;-89
2023/06/06 06:07:11;;;;;;;223.20;98.20;;;;;;;19.79;58.70;93334.75;5017216;28;20140;-87
2023/06/06 06:09:37;;;;;;;197.30;75.85;;;;;;;19.81;58.35;93345.22;5002285;28;20038;-91
2023/06/06 06:12:04;;;;;;;183.82;76.13;;;;;;;19.78;58.37;93346.25;5041750;28;20064;-90
2023/06/06 06:14:29;;;;;;;155.02;66.90;;;;;;;19.76;58.37;93341.28;5014825;28;20176;-91
2023/06/06 06:16:55;;;;;;;153.77;62.50;;;;;;;19.80;57.95;93349.97;5046635;28;20041;-91
2023/06/06 06:19:29;;;;;;;148.88;61.00;;;;;;;19.79;57.92;93342.25;5028829;28;20045;-92
2023/06/06 06:21:55;;;;;;;149.88;57.97;;;;;;;19.82;58.23;93346.69;5042799;28;20037;-91
2023/06/06 06:24:20;;;;;;;139.00;56.78;;;;;;;19.81;58.10;93342.47;5050864;28;20048;-91
2023/06/06 06:26:46;;;;;;;133.98;53.78;;;;;;;19.80;58.13;93360.94;5026173;28;20038;-90
2023/06/06 06:29:11;;;;;;;154.68;54.40;;;;;;;19.82;57.90;93352.94;5022479;28;20041;-90
2023/06/06 06:31:37;;;;;;;139.82;54.40;;;;;;;19.81;57.89;93347.97;5043830;28;20034;-88
2023/06/06 06:34:03;;;;;;;132.65;54.13;;;;;;;19.81;57.90;93356.94;5029371;28;20061;-89
2023/06/06 06:36:29;;;;;;;143.93;56.03;;;;;;;19.92;57.95;93358.03;5028249;28;20046;-88
2023/06/06 06:38:54;;;;;;;117.85;51.85;;;;;;;19.84;57.87;93366.88;5002246;28;20619;-90
2023/06/06 06:41:20;;;;;;;143.50;57.65;;;;;;;19.88;57.60;93355.59;4999404;28;20040;-89
2023/06/06 06:43:46;;;;;;;136.55;57.90;;;;;;;19.86;57.64;93360.84;5024158;28;20049;-90
2023/06/06 06:46:12;;;;;;;140.15;59.40;;;;;;;19.84;57.88;93358.63;5044484;28;20065;-90
2023/06/06 06:48:39;;;;;;;125.95;58.28;;;;;;;19.86;57.95;93369.09;5023443;28;20042;-90
2023/06/06 06:51:04;;;;;;;140.20;58.78;;;;;;;19.88;57.76;93361.09;5043754;28;20045;-90
2023/06/06 06:53:30;;;;;;;141.27;62.05;;;;;;;19.85;57.66;93365.59;5010017;28;20471;-90
2023/06/06 06:55:55;;;;;;;158.10;56.92;;;;;;;19.85;58.09;93367.59;5039471;28;20123;-90
2023/06/06 06:58:33;;;;;;;192.68;62.33;;;;;;;19.80;58.05;93374.66;5028607;28;20045;-91
2023/06/06 07:01:02;;;;;;;168.85;56.30;;;;;;;19.78;58.71;93379.16;5027713;28;20533;-92
2023/06/06 07:03:28;;;;;;;154.73;58.35;;;;;;;19.77;58.14;93372.94;5030170;28;20083;-89
2023/06/06 07:05:54;;;;;;;138.75;50.50;;;;;;;19.80;58.58;93374.66;5038901;28;20102;-90
2023/06/06 07:08:20;;;;;;;201.07;88.53;;;;;;;19.91;57.92;93373.03;5028735;28;20080;-91
2023/06/06 07:10:48;;;;;;;185.73;84.28;;;;;;;19.84;57.95;93382.59;5000345;28;20618;-90
2023/06/06 07:13:14;;;;;;;719.65;203.95;;;;;;;19.87;57.97;93380.81;5033760;28;20113;-92
2023/06/06 07:15:40;;;;;;;454.35;208.43;;;;;;;19.91;57.78;93368.28;5019670;28;20037;-92
2023/06/06 07:18:06;;;;;;;388.98;178.18;;;;;;;19.90;57.70;93368.78;5024427;28;20084;-93
2023/06/06 07:20:31;;;;;;;365.40;186.25;;;;;;;19.91;57.42;93373.75;5059637;28;20068;-93
2023/06/06 07:22:57;;;;;;;498.83;205.85;;;;;;;19.88;57.69;93376.81;5031931;28;20077;-92
2023/06/06 07:25:22;;;;;;;459.75;211.77;;;;;;;19.96;57.76;93375.66;5020752;28;20097;-92
2023/06/06 07:27:48;;;;;;;534.55;222.35;;;;;;;19.98;57.89;93377.88;5044720;28;20125;-91
2023/06/06 07:30:14;;;;;;;478.77;261.33;;;;;;;19.97;57.50;93384.63;4995636;28;20084;-91
2023/06/06 07:32:43;;;;;;;402.83;216.15;;;;;;;19.98;57.57;93383.38;5033923;28;20129;-91
2023/06/06 07:35:16;;;;;;;485.60;282.25;;;;;;;19.99;57.42;93377.38;5030830;28;20411;-91
2023/06/06 07:37:42;;;;;;;447.05;246.57;;;;;;;19.98;57.72;93380.63;5017512;28;20061;-92
2023/06/06 07:40:11;;;;;;;441.60;257.10;;;;;;;19.94;57.64;93380.91;5044601;28;20037;-91
2023/06/06 07:42:36;;;;;;;412.40;243.88;;;;;;;19.97;57.68;93370.91;5028908;28;20694;-92
2023/06/06 07:45:03;;;;;;;294.38;170.68;;;;;;;19.89;58.47;93376.28;5044866;28;20503;-91
2023/06/06 07:47:30;;;;;;;187.93;102.82;;;;;;;19.89;58.95;93370.06;5026407;28;20090;-92
2023/06/06 07:49:56;;;;;;;144.25;81.47;;;;;;;19.90;58.98;93374.28;5014325;28;20044;-92
2023/06/06 07:52:21;;;;;;;150.82;77.18;;;;;;;19.87;59.83;93378.81;5028022;28;20056;-90
2023/06/06 07:54:47;;;;;;;147.05;69.38;;;;;;;19.77;59.96;93378.44;5010802;28;20087;-92
2023/06/06 07:57:15;;;;;;;126.00;62.15;;;;;;;19.77;59.94;93378.44;5029439;28;20036;-92
2023/06/06 07:59:44;;;;;;;132.50;65.78;;;;;;;19.72;60.39;93382.00;5029402;28;20042;-92
2023/06/06 08:02:10;;;;;;;180.77;82.07;;;;;;;19.71;60.42;93386.00;5033957;28;20562;-91
2023/06/06 08:04:35;;;;;;;178.98;79.95;;;;;;;19.67;60.02;93382.81;5014326;28;20091;-92
2023/06/06 08:07:03;;;;;;;134.70;59.72;;;;;;;19.66;60.16;93386.09;4990354;28;20109;-91
2023/06/06 08:09:30;;;;;;;290.00;80.22;;;;;;;19.63;60.05;93376.88;4997114;28;20037;-92
2023/06/06 08:11:57;;;;;;;133.70;48.40;;;;;;;19.74;60.04;93373.97;4977375;28;20136;-93
2023/06/06 08:14:22;;;;;;;122.30;47.17;;;;;;;19.63;60.70;93387.88;4995547;28;20266;-92
2023/06/06 08:16:48;;;;;;;104.68;39.00;;;;;;;19.64;60.80;93383.13;4983990;28;20038;-92
2023/06/06 08:19:14;;;;;;;99.43;42.55;;;;;;;19.67;60.48;93374.59;4980670;28;20049;-90
2023/06/06 08:21:39;;;;;;;100.25;42.42;;;;;;;19.69;60.53;93371.34;5000003;28;20065;-92
2023/06/06 08:24:05;;;;;;;132.77;46.10;;;;;;;19.74;60.25;93375.97;5008205;28;20042;-93
2023/06/06 08:26:31;;;;;;;118.00;42.70;;;;;;;19.73;60.14;93372.50;4987357;28;20041;-91
2023/06/06 08:28:57;;;;;;;130.20;47.25;;;;;;;19.77;60.07;93370.19;5012595;28;20692;-91
2023/06/06 08:31:23;;;;;;;128.70;49.53;;;;;;;19.82;59.78;93374.88;4977082;28;20115;-90
2023/06/06 08:33:49;;;;;;;175.77;63.28;;;;;;;19.81;59.84;93367.16;5018425;28;20176;-91
2023/06/06 08:36:15;;;;;;;167.88;67.00;;;;;;;19.80;59.50;93380.13;4992398;28;20132;-91
2023/06/06 08:38:43;;;;;;;134.88;63.85;;;;;;;19.79;59.16;93375.91;5015910;28;20076;-92
2023/06/06 08:41:08;;;;;;;99.32;42.78;;;;;;;19.83;59.36;93372.88;5009244;28;20526;-90
2023/06/06 08:43:36;;;;;;;70.93;35.38;;;;;;;19.80;59.60;93382.13;5013115;28;20038;-91
2023/06/06 08:46:02;;;;;;;93.35;36.47;;;;;;;19.79;59.04;93378.66;5049944;28;20068;-93
2023/06/06 08:48:28;;;;;;;70.72;31.38;;;;;;;19.80;59.49;93382.88;5022418;28;20172;-90
2023/06/06 08:50:55;;;;;;;94.40;31.95;;;;;;;19.87;59.51;93387.03;5024087;28;20186;-88
2023/06/06 08:53:21;;;;;;;97.55;30.65;;;;;;;19.90;59.27;93380.50;5044948;28;20119;-88
2023/06/06 08:55:46;;;;;;;55.78;24.25;;;;;;;19.85;59.42;93378.59;5021594;28;20503;-90
2023/06/06 08:58:12;;;;;;;54.67;23.17;;;;;;;19.85;59.36;93384.81;5018562;28;20042;-90
2023/06/06 09:00:37;;;;;;;89.28;33.13;;;;;;;19.83;59.34;93384.59;5046987;28;20075;-89
2023/06/06 09:03:06;;;;;;;95.72;31.25;;;;;;;19.84;59.24;93380.59;5002452;28;20044;-89
2023/06/06 09:05:32;;;;;;;78.22;31.35;;;;;;;19.90;59.18;93377.03;5000939;28;20064;-89
2023/06/06 09:07:57;;;;;;;77.15;30.23;;;;;;;19.88;59.04;93391.25;5052169;28;20392;-90
2023/06/06 09:10:23;;;;;;;81.95;38.88;;;;;;;19.95;59.28;93396.13;5028523;28;20064;-91
2023/06/06 09:12:49;;;;;;;106.63;44.42;;;;;;;19.91;59.22;93387.47;5027262;28;20087;-91
2023/06/06 09:15:14;;;;;;;91.57;41.97;;;;;;;19.90;59.53;93394.22;5026288;28;20050;-93
2023/06/06 09:17:41;;;;;;;94.32;43.03;;;;;;;19.89;59.42;93381.78;5037580;28;20037;-94
2023/06/06 09:20:15;;;;;;;86.03;41.90;;;;;;;19.91;59.18;93384.72;5029372;28;20037;-91
2023/06/06 09:22:41;;;;;;;79.15;41.60;;;;;;;19.91;59.51;93394.97;5029563;28;20436;-89
2023/06/06 09:25:16;;;;;;;96.95;46.47;;;;;;;19.94;59.82;93393.91;5024281;28;20060;-91
2023/06/06 09:27:41;;;;;;;95.70;46.65;;;;;;;19.92;59.36;93402.66;5030178;28;20125;-92
2023/06/06 09:30:19;;;;;;;87.15;42.83;;;;;;;19.93;59.51;93398.66;5029879;28;20052;-90
2023/06/06 09:32:46;;;;;;;103.03;42.42;;;;;;;19.92;59.52;93405.41;5028658;28;20414;-90
2023/06/06 09:35:15;;;;;;;116.05;51.25;;;;;;;19.93;59.53;93404.13;5028940;28;20415;-94
2023/06/06 09:37:41;;;;;;;77.97;39.58;;;;;;;19.93;59.58;93401.38;5031679;28;20051;-94
2023/06/06 09:40:13;;;;;;;81.95;39.28;;;;;;;19.96;59.61;93397.59;5016004;28;20050;-94
2023/06/06 09:42:48;;;;;;;83.38;41.75;;;;;;;19.95;59.61;93401.63;5064041;28;20037;-94
2023/06/06 09:45:19;;;;;;;96.20;42.97;;;;;;;19.99;59.39;93404.81;5015201;28;20048;-90
2023/06/06 09:47:47;;;;;;;;;;;;;;;20.03;59.26;93404.50;5043780;28;20048;-90
2023/06/06 09:50:14;;;;;;;98.13;43.08;;;;;;;20.00;59.75;93402.81;5059875;28;19928;-91
2023/06/06 09:52:40;;;;;;;88.80;42.22;;;;;;;19.98;59.60;93406.06;5030143;28;20040;-91
2023/06/06 09:55:09;;;;;;;97.30;46.22;;;;;;;19.98;59.81;93397.09;5025000;28;20041;-91
2023/06/06 09:57:36;;;;;;;83.43;43.28;;;;;;;20.01;59.80;93401.53;5004679;28;20041;-93
2023/06/06 10:00:10;;;;;;;88.55;38.42;;;;;;;20.08;59.60;93390.72;5031172;28;20033;-91
2023/06/06 10:02:42;;;;;;;91.45;42.03;;;;;;;20.10;59.91;93399.16;5032310;28;20026;-91
2023/06/06 10:05:10;;;;;;;70.80;35.88;;;;;;;20.00;60.28;93395.31;5017315;28;20549;-89
2023/06/06 10:07:36;;;;;;;67.55;37.17;;;;;;;19.99;60.21;93390.34;5021479;28;20427;-90
2023/06/06 10:10:02;;;;;;;65.20;33.45;;;;;;;19.98;60.17;93395.09;5028157;28;20068;-91
2023/06/06 10:12:29;;;;;;;68.38;34.40;;;;;;;19.98;60.31;93391.59;5009744;28;20038;-93
2023/06/06 10:14:55;;;;;;;65.75;37.80;;;;;;;20.01;60.11;93387.81;5046336;28;20127;-90
2023/06/06 10:17:23;;;;;;;70.68;35.50;;;;;;;19.99;60.06;93393.81;4988387;28;20068;-91
2023/06/06 10:19:49;;;;;;;74.72;36.28;;;;;;;20.02;60.00;93394.78;5012699;28;20128;-92
2023/06/06 10:22:14;;;;;;;55.10;35.25;;;;;;;20.05;59.99;93399.25;5025098;28;20049;-91
2023/06/06 10:24:40;;;;;;;65.32;33.40;;;;;;;20.02;60.03;93389.31;5030603;28;20049;-91
2023/06/06 10:27:20;;;;;;;61.38;34.50;;;;;;;20.02;59.78;93392.03;5044944;28;20049;-92
2023/06/06 10:30:01;;;;;;;59.97;33.08;;;;;;;20.03;59.72;93396.28;5042070;28;20056;-92
2023/06/06 10:32:41;;;;;;;62.45;35.60;;;;;;;20.04;59.45;93386.78;5006851;28;20532;-91
2023/06/06 10:35:07;;;;;;;;;;;;;;;20.07;59.38;93397.47;4983889;28;20447;-93
2023/06/06 10:37:33;;;;;;;61.33;34.55;;;;;;;20.06;59.41;93393.22;5064925;28;19921;-91
2023/06/06 10:40:09;;;;;;;61.30;34.05;;;;;;;20.06;59.28;93390.47;5016676;28;20040;-92
2023/06/06 10:42:38;;;;;;;63.38;35.13;;;;;;;20.07;59.25;93396.72;5018451;28;20040;-92
2023/06/06 10:45:04;;;;;;;54.17;34.83;;;;;;;20.05;59.22;93391.75;5002977;28;20037;-89
2023/06/06 10:47:44;;;;;;;60.88;32.25;;;;;;;20.07;59.22;93386.47;5013530;28;20049;-91
2023/06/06 10:50:13;;;;;;;62.00;33.45;;;;;;;20.07;59.15;93388.47;5029281;28;20741;-91
2023/06/06 10:52:43;;;;;;;60.17;36.08;;;;;;;20.09;58.79;93391.44;5039122;28;20059;-90
2023/06/06 10:55:24;;;;;;;54.70;32.25;;;;;;;20.09;58.87;93385.97;5015288;28;20048;-91
2023/06/06 10:57:50;;;;;;;;;;;;;;;20.11;58.68;93383.44;5030773;28;20033;-92
2023/06/06 11:00:17;;;;;;;57.63;36.38;;;;;;;20.09;58.76;93386.69;5057611;28;19937;-90
2023/06/06 11:02:44;;;;;;;49.33;33.42;;;;;;;20.11;58.56;93381.44;5017955;28;20571;-90
2023/06/06 11:05:09;;;;;;;59.95;34.47;;;;;;;20.08;58.87;93376.97;5013055;28;20044;-89
2023/06/06 11:07:36;;;;;;;52.78;35.40;;;;;;;20.09;58.94;93378.47;5021115;28;20052;-89
2023/06/06 11:10:04;;;;;;;54.55;35.33;;;;;;;20.11;58.81;93383.44;4996997;28;20037;-91
2023/06/06 11:12:32;;;;;;;66.47;42.47;;;;;;;20.12;58.85;93373.94;5042921;28;20522;-92